Time;durP1;ratioP1;P1;durP2;ratioP2;P2;SDS_P1;SDS_P2;PMS_P1;PMS_P2;Temp;Humidity;BMP_temperature;BMP_pressure;BME280_temperature;BME280_humidity;BME280_pressure;Samples;Min_cycle;Max_cycle;Signal;HPM_P1;HPM_P2
2022/04/05 00:02:25;;;;;;;;;;;2.10;99.90;;;;;;4923543;29;19923;-71
2022/04/05 00:04:52;;;;;;;;;;;2.10;99.90;;;;;;4937206;29;19929;-71
2022/04/05 00:07:24;;;;;;;;;;;2.10;99.90;;;;;;4936364;29;19929;-71
2022/04/05 00:09:55;;;;;;;;;;;2.10;99.90;;;;;;4932375;29;19927;-71
2022/04/05 00:12:23;;;;;;;;;;;2.10;99.90;;;;;;4923441;29;19970;-72
2022/04/05 00:14:50;;;;;;;;;;;2.10;99.90;;;;;;4953106;29;19922;-71
2022/04/05 00:17:17;;;;;;;;;;;2.10;99.90;;;;;;4939457;29;19932;-71
2022/04/05 00:19:43;;;;;;;;;;;2.00;99.90;;;;;;4944976;29;19986;-71
2022/04/05 00:22:10;;;;;;;;;;;2.00;99.90;;;;;;4922222;29;19930;-72
2022/04/05 00:24:42;;;;;;;;;;;2.00;99.90;;;;;;4935795;29;19970;-71
2022/04/05 00:27:08;;;;;;;;;;;2.00;99.90;;;;;;4937269;29;19949;-71
2022/04/05 00:29:35;;;;;;;;;;;2.00;99.90;;;;;;4935926;29;19985;-71
2022/04/05 00:32:02;;;;;;;;;;;2.00;99.90;;;;;;4918433;29;20372;-71
2022/04/05 00:34:33;;;;;;;;;;;2.00;99.90;;;;;;4935509;29;19922;-71
2022/04/05 00:37:05;;;;;;;;;;;1.90;99.90;;;;;;4916793;29;19966;-71
2022/04/05 00:39:37;;;;;;;;;;;2.00;99.90;;;;;;4919585;29;19923;-71
2022/04/05 00:42:10;;;;;;;;;;;1.90;99.90;;;;;;4919368;29;19977;-71
2022/04/05 00:44:37;;;;;;;;;;;2.00;99.90;;;;;;4925975;29;19930;-71
2022/04/05 00:47:19;;;;;;;;;;;2.00;99.90;;;;;;4937506;29;19929;-71
2022/04/05 00:49:52;;;;;;;;;;;2.00;99.90;;;;;;4932341;29;19923;-71
2022/04/05 00:52:24;;;;;;;;;;;2.00;99.90;;;;;;4929070;29;19929;-71
2022/04/05 00:54:58;;;;;;;;;;;2.00;99.90;;;;;;4935236;29;19926;-71
2022/04/05 00:57:29;;;;;;;;;;;2.00;99.90;;;;;;4920366;29;20395;-71
2022/04/05 01:00:03;;;;;;;;;;;2.00;99.90;;;;;;4931341;29;19923;-71
2022/04/05 01:02:38;;;;;;;;;;;2.00;99.90;;;;;;4929718;29;20297;-71
2022/04/05 01:05:10;;;;;;;;;;;2.00;99.90;;;;;;4933909;29;19937;-71
2022/04/05 01:07:43;;;;;;;;;;;2.00;99.90;;;;;;4935941;29;19933;-71
2022/04/05 01:10:11;;;;;;;;;;;2.00;99.90;;;;;;4927268;29;19966;-71
2022/04/05 01:12:42;;;;;;;;;;;2.00;99.90;;;;;;4909754;29;20126;-71
2022/04/05 01:15:09;;;;;;;;;;;2.00;99.90;;;;;;4934227;29;19959;-71
2022/04/05 01:17:41;;;;;;;;;;;2.00;99.90;;;;;;4934292;29;20267;-71
2022/04/05 01:20:12;;;;;;;;;;;2.10;99.90;;;;;;4925005;29;19927;-71
2022/04/05 01:22:48;;;;;;;;;;;2.10;99.90;;;;;;4926112;29;19932;-71
2022/04/05 01:25:16;;;;;;;;;;;2.10;99.90;;;;;;4926475;29;19934;-71
2022/04/05 01:27:48;;;;;;;;;;;2.20;99.90;;;;;;4919009;29;19923;-71
2022/04/05 01:30:15;;;;;;;;;;;2.20;99.90;;;;;;4930649;29;19923;-71
2022/04/05 01:32:42;;;;;;;;;;;2.20;99.90;;;;;;4925040;29;20456;-71
2022/04/05 01:35:16;;;;;;;;;;;2.20;99.90;;;;;;4935036;29;19923;-71
2022/04/05 01:37:43;;;;;;;;;;;2.20;99.90;;;;;;4933919;29;19933;-71
2022/04/05 01:40:10;;;;;;;;;;;2.30;99.90;;;;;;4914970;29;19955;-71
2022/04/05 01:42:37;;;;;;;;;;;2.30;99.90;;;;;;4922441;29;20371;-71
2022/04/05 01:45:04;;;;;;;;;;;2.30;99.90;;;;;;4933993;29;20267;-71
2022/04/05 01:47:38;;;;;;;;;;;2.30;99.90;;;;;;4933865;29;19926;-71
2022/04/05 01:50:10;;;;;;;;;;;2.40;99.90;;;;;;4915442;29;19962;-71
2022/04/05 01:52:37;;;;;;;;;;;2.40;99.90;;;;;;4923594;29;19926;-71
2022/04/05 01:55:09;;;;;;;;;;;2.40;99.90;;;;;;4933387;29;19933;-71
2022/04/05 01:57:41;;;;;;;;;;;2.40;99.90;;;;;;4935007;29;20404;-71
2022/04/05 02:00:16;;;;;;;;;;;2.40;99.90;;;;;;4934475;29;19923;-71
2022/04/05 02:02:48;;;;;;;;;;;2.40;99.90;;;;;;4927709;29;20382;-71
2022/04/05 02:05:17;;;;;;;;;;;2.50;99.90;;;;;;4925539;29;19938;-71
2022/04/05 02:07:43;;;;;;;;;;;2.50;99.90;;;;;;4917852;29;19943;-71
2022/04/05 02:10:15;;;;;;;;;;;2.50;99.90;;;;;;4915099;29;19946;-71
2022/04/05 02:12:42;;;;;;;;;;;2.50;99.90;;;;;;4927348;29;20882;-71
2022/04/05 02:15:22;;;;;;;;;;;2.60;99.90;;;;;;4921876;29;20468;-71
2022/04/05 02:17:58;;;;;;;;;;;2.60;99.90;;;;;;4934741;29;19950;-71
2022/04/05 02:20:27;;;;;;;;;;;2.60;99.90;;;;;;4914562;29;20382;-71
2022/04/05 02:23:00;;;;;;;;;;;2.60;99.90;;;;;;4930316;29;19954;-71
2022/04/05 02:25:49;;;;;;;;;;;2.70;99.90;;;;;;4917499;29;19923;-71
2022/04/05 02:28:25;;;;;;;;;;;2.60;99.90;;;;;;4915815;29;19926;-71
2022/04/05 02:31:02;;;;;;;;;;;2.70;99.90;;;;;;4903140;29;19929;-71
2022/04/05 02:33:36;;;;;;;;;;;2.70;99.90;;;;;;4928906;29;19927;-71
2022/04/05 02:36:15;;;;;;;;;;;2.70;99.90;;;;;;4918970;29;19923;-71
2022/04/05 02:38:49;;;;;;;;;;;2.70;99.90;;;;;;4917890;29;19929;-73
2022/04/05 02:41:16;;;;;;;;;;;2.70;99.90;;;;;;4913869;29;19930;-71
2022/04/05 02:43:49;;;;;;;;;;;2.70;99.90;;;;;;4930497;29;19930;-71
2022/04/05 02:46:22;;;;;;;;;;;2.70;99.90;;;;;;4929643;29;19923;-71
2022/04/05 02:48:55;;;;;;;;;;;2.70;99.90;;;;;;4898930;29;19926;-71
2022/04/05 02:51:31;;;;;;;;;;;2.70;99.90;;;;;;4929607;29;19930;-71
2022/04/05 02:54:11;;;;;;;;;;;2.70;99.90;;;;;;4932363;29;19930;-71
2022/04/05 02:56:43;;;;;;;;;;;2.80;99.90;;;;;;4929551;29;19927;-71
2022/04/05 02:59:11;;;;;;;;;;;2.80;99.90;;;;;;4913447;29;20386;-71
2022/04/05 03:01:45;;;;;;;;;;;2.80;99.90;;;;;;4918956;29;19926;-71
2022/04/05 03:04:19;;;;;;;;;;;2.80;99.90;;;;;;4948547;29;19922;-71
2022/04/05 03:06:52;;;;;;;;;;;2.90;99.90;;;;;;4930458;29;19923;-71
2022/04/05 03:09:21;;;;;;;;;;;2.90;99.90;;;;;;4913827;29;20413;-71
2022/04/05 03:11:55;;;;;;;;;;;2.90;99.90;;;;;;4912229;29;20539;-71
2022/04/05 03:14:22;;;;;;;;;;;2.90;99.90;;;;;;4929274;29;19923;-71
2022/04/05 03:16:50;;;;;;;;;;;2.90;99.90;;;;;;4899584;29;20006;-71
2022/04/05 03:19:19;;;;;;;;;;;2.90;99.90;;;;;;4897900;29;19927;-71
2022/04/05 03:21:47;;;;;;;;;;;2.90;99.90;;;;;;4913337;29;19923;-71
2022/04/05 03:24:14;;;;;;;;;;;2.80;99.90;;;;;;4913765;29;19927;-71
2022/04/05 03:26:46;;;;;;;;;;;2.80;99.90;;;;;;4914092;29;20271;-71
2022/04/05 03:29:18;;;;;;;;;;;2.80;99.90;;;;;;4913959;29;20018;-71
2022/04/05 03:31:45;;;;;;;;;;;2.70;99.90;;;;;;4898005;29;20558;-71
2022/04/05 03:34:12;;;;;;;;;;;2.70;99.90;;;;;;4913944;29;20014;-71
2022/04/05 03:36:41;;;;;;;;;;;2.60;99.90;;;;;;4914050;29;19973;-71
2022/04/05 03:39:09;;;;;;;;;;;2.60;99.90;;;;;;4913958;29;19982;-71
2022/04/05 03:41:42;;;;;;;;;;;2.50;99.90;;;;;;4913697;29;19951;-71
2022/04/05 03:44:13;;;;;;;;;;;2.60;99.90;;;;;;4921714;29;19974;-71
2022/04/05 03:46:48;;;;;;;;;;;2.50;99.90;;;;;;4911166;29;19930;-71
2022/04/05 03:49:15;;;;;;;;;;;2.60;99.90;;;;;;4914658;29;19954;-71
2022/04/05 03:51:46;;;;;;;;;;;2.60;99.90;;;;;;4929937;29;19922;-72
2022/04/05 03:54:13;;;;;;;;;;;2.60;99.90;;;;;;4932589;29;20037;-71
2022/04/05 03:56:45;;;;;;;;;;;2.60;99.90;;;;;;4922392;29;19930;-72
2022/04/05 03:59:13;;;;;;;;;;;2.50;99.90;;;;;;4930857;29;20009;-71
2022/04/05 04:01:40;;;;;;;;;;;2.50;99.90;;;;;;4910074;29;19926;-71
2022/04/05 04:04:11;;;;;;;;;;;2.50;99.90;;;;;;4913393;29;20019;-71
2022/04/05 04:06:44;;;;;;;;;;;2.60;99.90;;;;;;4928735;29;19978;-71
2022/04/05 04:09:16;;;;;;;;;;;2.60;99.90;;;;;;4914687;29;19930;-71
2022/04/05 04:11:48;;;;;;;;;;;2.60;99.90;;;;;;4922901;29;20577;-71
2022/04/05 04:14:20;;;;;;;;;;;2.70;99.90;;;;;;4914268;29;20010;-72
2022/04/05 04:16:52;;;;;;;;;;;2.70;99.90;;;;;;4922710;29;19922;-72
2022/04/05 04:19:20;;;;;;;;;;;2.70;99.90;;;;;;4919675;29;19933;-72
2022/04/05 04:21:53;;;;;;;;;;;2.80;99.90;;;;;;4913158;29;20013;-71
2022/04/05 04:24:24;;;;;;;;;;;2.80;99.90;;;;;;4914241;29;20263;-71
2022/04/05 04:26:52;;;;;;;;;;;2.80;99.90;;;;;;4913115;29;20390;-71
2022/04/05 04:29:19;;;;;;;;;;;2.80;99.90;;;;;;4922325;29;19933;-71
2022/04/05 04:31:51;;;;;;;;;;;2.70;99.90;;;;;;4913240;29;19979;-71
2022/04/05 04:34:18;;;;;;;;;;;2.70;99.90;;;;;;4927693;29;19930;-72
2022/04/05 04:36:45;;;;;;;;;;;2.70;99.90;;;;;;4930048;29;19952;-71
2022/04/05 04:39:17;;;;;;;;;;;2.70;99.90;;;;;;4934533;29;19923;-71
2022/04/05 04:41:48;;;;;;;;;;;2.70;99.90;;;;;;4941403;28;19937;-72
2022/04/05 04:44:20;;;;;;;;;;;2.60;99.90;;;;;;4934500;29;19969;-71
2022/04/05 04:46:51;;;;;;;;;;;2.60;99.90;;;;;;4933729;29;20025;-72
2022/04/05 04:49:23;;;;;;;;;;;2.50;99.90;;;;;;4932796;29;19945;-72
2022/04/05 04:51:55;;;;;;;;;;;2.50;99.90;;;;;;4924748;29;19930;-71
2022/04/05 04:54:21;;;;;;;;;;;2.50;99.90;;;;;;4934756;29;19923;-72
2022/04/05 04:56:48;;;;;;;;;;;2.40;99.90;;;;;;4925769;29;19927;-72
2022/04/05 04:59:20;;;;;;;;;;;2.40;99.90;;;;;;4940647;29;20029;-72
2022/04/05 05:01:51;;;;;;;;;;;2.40;99.90;;;;;;4936597;28;19931;-71
2022/04/05 05:04:18;;;;;;;;;;;2.50;99.90;;;;;;4932563;29;20394;-72
2022/04/05 05:06:51;;;;;;;;;;;2.40;99.90;;;;;;4939363;29;19922;-72
2022/04/05 05:09:18;;;;;;;;;;;2.40;99.90;;;;;;4933751;29;20645;-71
2022/04/05 05:11:44;;;;;;;;;;;2.40;99.90;;;;;;4920830;29;19952;-71
2022/04/05 05:14:14;;;;;;;;;;;2.40;99.90;;;;;;4948223;28;19974;-72
2022/04/05 05:16:45;;;;;;;;;;;2.40;99.90;;;;;;4921450;29;20389;-71
2022/04/05 05:19:12;;;;;;;;;;;2.40;99.90;;;;;;4936680;28;19922;-71
2022/04/05 05:21:39;;;;;;;;;;;2.40;99.90;;;;;;4926530;29;20577;-72
2022/04/05 05:24:10;;;;;;;;;;;2.50;99.90;;;;;;4928166;29;19923;-71
2022/04/05 05:26:37;;;;;;;;;;;2.50;99.90;;;;;;4935899;29;19922;-71
2022/04/05 05:29:04;;;;;;;;;;;2.50;99.90;;;;;;4925417;29;19923;-71
2022/04/05 05:31:30;;;;;;;;;;;2.50;99.90;;;;;;4927649;29;19923;-71
2022/04/05 05:33:57;;;;;;;;;;;2.50;99.90;;;;;;4936526;29;19930;-71
2022/04/05 05:36:23;;;;;;;;;;;2.50;99.90;;;;;;4946793;29;20013;-71
2022/04/05 05:38:50;;;;;;;;;;;2.50;99.90;;;;;;4933094;29;20050;-71
2022/04/05 05:41:22;;;;;;;;;;;2.50;99.90;;;;;;4925978;29;19930;-71
2022/04/05 05:43:53;;;;;;;;;;;2.50;99.90;;;;;;4933195;29;19953;-72
2022/04/05 05:46:25;;;;;;;;;;;2.50;99.90;;;;;;4942963;28;19928;-71
2022/04/05 05:48:57;;;;;;;;;;;2.40;99.90;;;;;;4931265;29;19981;-71
2022/04/05 05:51:23;;;;;;;;;;;2.40;99.90;;;;;;4916095;29;19966;-72
2022/04/05 05:53:55;;;;;;;;;;;2.40;99.90;;;;;;4937501;29;19930;-71
2022/04/05 05:56:27;;;;;;;;;;;2.40;99.90;;;;;;4941167;29;20010;-71
2022/04/05 05:58:53;;;;;;;;;;;2.40;99.90;;;;;;4949938;28;19926;-71
2022/04/05 06:01:21;;;;;;;;;;;2.30;99.90;;;;;;4947325;28;20349;-71
2022/04/05 06:03:47;;;;;;;;;;;2.30;99.90;;;;;;4946195;29;20297;-71
2022/04/05 06:06:19;;;;;;;;;;;2.30;99.90;;;;;;4914039;29;20288;-71
2022/04/05 06:08:51;;;;;;;;;;;2.30;99.90;;;;;;4954524;28;19922;-71
2022/04/05 06:11:17;;;;;;;;;;;2.30;99.90;;;;;;4925133;29;19926;-71
2022/04/05 06:13:49;;;;;;;;;;;2.30;99.90;;;;;;4937636;28;19923;-71
2022/04/05 06:16:18;;;;;;;;;;;2.40;99.90;;;;;;4934132;28;20279;-71
2022/04/05 06:18:51;;;;;;;;;;;2.40;99.90;;;;;;4941304;29;20013;-71
2022/04/05 06:21:19;;;;;;;;;;;2.40;99.90;;;;;;4915770;29;20386;-71
2022/04/05 06:23:46;;;;;;;;;;;2.50;99.90;;;;;;4939526;29;20362;-71
2022/04/05 06:26:18;;;;;;;;;;;2.50;99.90;;;;;;4938023;29;19922;-71
2022/04/05 06:28:45;;;;;;;;;;;2.50;99.90;;;;;;4944285;29;20050;-71
2022/04/05 06:31:17;;;;;;;;;;;2.50;99.90;;;;;;4934611;28;19930;-71
2022/04/05 06:33:48;;;;;;;;;;;2.50;99.90;;;;;;4934889;29;19922;-71
2022/04/05 06:36:20;;;;;;;;;;;2.50;99.90;;;;;;4945874;29;19933;-71
2022/04/05 06:38:51;;;;;;;;;;;2.60;99.90;;;;;;4922443;29;19922;-71
2022/04/05 06:41:18;;;;;;;;;;;2.60;99.90;;;;;;4932838;29;19959;-71
2022/04/05 06:43:45;;;;;;;;;;;2.60;99.90;;;;;;4942333;29;19923;-71
2022/04/05 06:46:14;;;;;;;;;;;2.70;99.90;;;;;;4940144;29;19922;-72
2022/04/05 06:48:41;;;;;;;;;;;2.60;99.90;;;;;;4939739;29;19922;-71
2022/04/05 06:51:13;;;;;;;;;;;2.70;99.90;;;;;;4937643;28;19941;-71
2022/04/05 06:53:39;;;;;;;;;;;2.70;99.90;;;;;;4928349;29;19922;-71
2022/04/05 06:56:11;;;;;;;;;;;2.80;99.90;;;;;;4925500;29;19953;-71
2022/04/05 06:58:37;;;;;;;;;;;2.80;99.90;;;;;;4928496;29;19931;-71
2022/04/05 07:01:09;;;;;;;;;;;2.90;99.90;;;;;;4915193;29;19937;-71
2022/04/05 07:03:36;;;;;;;;;;;3.00;99.90;;;;;;4928072;29;19922;-71
2022/04/05 07:06:03;;;;;;;;;;;3.00;99.90;;;;;;4932514;29;19945;-70
2022/04/05 07:08:35;;;;;;;;;;;3.10;99.90;;;;;;4924356;29;19932;-71
2022/04/05 07:11:02;;;;;;;;;;;3.10;99.90;;;;;;4930057;29;19982;-71
2022/04/05 07:13:30;;;;;;;;;;;3.10;99.90;;;;;;4927770;29;19923;-71
2022/04/05 07:15:57;;;;;;;;;;;3.10;99.90;;;;;;4912769;29;19926;-72
2022/04/05 07:18:24;;;;;;;;;;;3.10;99.90;;;;;;4935431;29;19926;-71
2022/04/05 07:20:52;;;;;;;;;;;3.20;99.90;;;;;;4930443;29;19930;-71
2022/04/05 07:23:23;;;;;;;;;;;3.20;99.90;;;;;;4925193;29;19922;-70
2022/04/05 07:25:50;;;;;;;;;;;3.20;99.90;;;;;;4929483;29;19929;-71
2022/04/05 07:28:22;;;;;;;;;;;3.20;99.90;;;;;;4934009;29;19923;-71
2022/04/05 07:30:53;;;;;;;;;;;3.10;99.90;;;;;;4922629;29;19923;-72
2022/04/05 07:33:20;;;;;;;;;;;3.10;99.90;;;;;;4930754;29;19930;-71
2022/04/05 07:35:47;;;;;;;;;;;3.10;99.90;;;;;;4912126;29;20014;-71
2022/04/05 07:38:18;;;;;;;;;;;3.10;99.90;;;;;;4943550;29;20241;-71
2022/04/05 07:40:52;;;;;;;;;;;3.20;99.90;;;;;;4929694;29;19950;-71
2022/04/05 07:43:24;;;;;;;;;;;3.10;99.90;;;;;;4912583;29;20373;-71
2022/04/05 07:45:57;;;;;;;;;;;3.20;99.90;;;;;;4935714;29;19991;-71
2022/04/05 07:48:29;;;;;;;;;;;3.20;99.90;;;;;;4929629;29;19931;-71
2022/04/05 07:51:01;;;;;;;;;;;3.10;99.90;;;;;;4914224;29;19923;-71
2022/04/05 07:53:33;;;;;;;;;;;3.20;99.90;;;;;;4925103;29;19927;-71
2022/04/05 07:56:00;;;;;;;;;;;3.10;99.90;;;;;;4928771;29;20088;-71
2022/04/05 07:58:27;;;;;;;;;;;3.20;99.90;;;;;;4940349;28;20016;-71
2022/04/05 08:00:54;;;;;;;;;;;3.20;99.90;;;;;;4925355;29;20743;-71
2022/04/05 08:03:22;;;;;;;;;;;3.20;99.90;;;;;;4906854;29;20390;-72
2022/04/05 08:05:53;;;;;;;;;;;3.30;99.90;;;;;;4914691;29;20019;-71
2022/04/05 08:08:25;;;;;;;;;;;3.30;99.90;;;;;;4915100;29;20271;-71
2022/04/05 08:10:57;;;;;;;;;;;3.40;99.90;;;;;;4930610;29;20341;-72
2022/04/05 08:13:26;;;;;;;;;;;3.50;99.90;;;;;;4932574;29;19922;-71
2022/04/05 08:15:53;;;;;;;;;;;3.50;99.90;;;;;;4940730;28;19928;-71
2022/04/05 08:18:25;;;;;;;;;;;3.60;99.90;;;;;;4937889;29;20374;-71
2022/04/05 08:20:56;;;;;;;;;;;3.60;99.90;;;;;;4927011;29;19922;-70
2022/04/05 08:23:28;;;;;;;;;;;3.70;99.90;;;;;;4926061;29;19929;-70
2022/04/05 08:25:55;;;;;;;;;;;3.70;99.90;;;;;;4936063;29;19926;-71
2022/04/05 08:28:26;;;;;;;;;;;3.80;99.90;;;;;;4949641;28;20317;-71
2022/04/05 08:30:58;;;;;;;;;;;3.80;99.90;;;;;;4934079;29;19974;-71
2022/04/05 08:33:25;;;;;;;;;;;3.90;99.90;;;;;;4922579;29;19930;-71
2022/04/05 08:35:56;;;;;;;;;;;3.90;99.90;;;;;;4940753;29;19929;-71
2022/04/05 08:38:28;;;;;;;;;;;3.90;99.90;;;;;;4935741;29;19933;-71
2022/04/05 08:41:02;;;;;;;;;;;4.00;99.90;;;;;;4930925;29;19930;-71
2022/04/05 08:43:34;;;;;;;;;;;4.00;99.90;;;;;;4933201;29;19964;-71
2022/04/05 08:46:02;;;;;;;;;;;4.00;99.90;;;;;;4916221;29;19923;-71
2022/04/05 08:48:34;;;;;;;;;;;4.10;99.90;;;;;;4943685;29;19978;-71
2022/04/05 08:51:01;;;;;;;;;;;4.10;99.90;;;;;;4914966;29;20339;-71
2022/04/05 08:53:29;;;;;;;;;;;4.20;99.90;;;;;;4928977;29;19922;-71
2022/04/05 08:56:01;;;;;;;;;;;4.20;99.90;;;;;;4941636;29;20377;-70
2022/04/05 08:58:33;;;;;;;;;;;4.30;99.90;;;;;;4932242;29;19923;-71
2022/04/05 09:01:00;;;;;;;;;;;4.30;99.90;;;;;;4932079;29;19923;-71
2022/04/05 09:03:33;;;;;;;;;;;4.30;99.90;;;;;;4931657;29;19923;-71
2022/04/05 09:06:24;;;;;;;;;;;4.40;99.90;;;;;;4931143;29;19926;-71
2022/04/05 09:08:51;;;;;;;;;;;4.50;99.90;;;;;;4931486;29;20499;-71
2022/04/05 09:11:27;;;;;;;;;;;4.60;99.90;;;;;;4918419;29;20350;-71
2022/04/05 09:13:58;;;;;;;;;;;4.60;99.90;;;;;;4931125;29;19923;-72
2022/04/05 09:16:30;;;;;;;;;;;4.70;99.90;;;;;;4926206;29;19929;-71
2022/04/05 09:19:08;;;;;;;;;;;4.80;99.90;;;;;;4931929;29;20047;-71
2022/04/05 09:21:49;;;;;;;;;;;4.80;99.90;;;;;;4926789;29;19944;-71
2022/04/05 09:24:20;;;;;;;;;;;4.90;99.90;;;;;;4931152;29;20180;-72
2022/04/05 09:26:52;;;;;;;;;;;5.00;99.90;;;;;;4929368;29;19938;-71
2022/04/05 09:29:19;;;;;;;;;;;5.00;99.90;;;;;;4929668;29;19923;-72
2022/04/05 09:31:50;;;;;;;;;;;5.10;99.90;;;;;;4928702;29;20394;-71
2022/04/05 09:34:23;;;;;;;;;;;5.10;99.90;;;;;;4927526;29;19926;-71
2022/04/05 09:36:54;;;;;;;;;;;5.20;99.90;;;;;;4931421;29;19930;-71
2022/04/05 09:39:25;;;;;;;;;;;5.20;99.90;;;;;;4927901;29;19922;-71
2022/04/05 09:41:57;;;;;;;;;;;5.30;99.90;;;;;;4930769;29;20006;-71
2022/04/05 09:44:33;;;;;;;;;;;5.30;99.90;;;;;;4930941;29;19923;-71
2022/04/05 09:47:14;;;;;;;;;;;5.30;99.90;;;;;;4924096;29;20010;-71
2022/04/05 09:49:47;;;;;;;;;;;5.30;99.90;;;;;;4927519;29;20110;-71
2022/04/05 09:52:45;;;;;;;;;;;5.30;99.90;;;;;;4922810;29;19973;-71
2022/04/05 09:55:16;;;;;;;;;;;5.30;99.90;;;;;;4916458;29;20546;-71
2022/04/05 09:57:48;;;;;;;;;;;5.40;99.90;;;;;;4926688;29;19926;-72
2022/04/05 10:00:20;;;;;;;;;;;5.40;99.90;;;;;;4926818;28;19922;-70
2022/04/05 10:03:06;;;;;;;;;;;5.40;99.90;;;;;;4927107;29;19945;-71
2022/04/05 10:05:33;;;;;;;;;;;5.50;99.90;;;;;;4936219;29;20022;-72
2022/04/05 10:08:05;;;;;;;;;;;5.50;99.90;;;;;;4927223;29;19923;-71
2022/04/05 10:10:37;;;;;;;;;;;5.60;99.90;;;;;;4927621;29;20018;-71
2022/04/05 10:13:09;;;;;;;;;;;5.60;99.90;;;;;;4930445;29;19980;-71
2022/04/05 10:15:42;;;;;;;;;;;5.60;99.90;;;;;;4933373;29;19948;-70
2022/04/05 10:18:09;;;;;;;;;;;5.60;99.90;;;;;;4925071;29;19930;-71
2022/04/05 10:20:41;;;;;;;;;;;5.70;99.90;;;;;;4921946;29;20294;-71
2022/04/05 10:23:15;;;;;;;;;;;5.70;99.90;;;;;;4932361;29;19922;-70
2022/04/05 10:25:49;;;;;;;;;;;5.80;99.90;;;;;;4926001;29;20400;-72
2022/04/05 10:28:31;;;;;;;;;;;5.80;99.90;;;;;;4918166;29;20010;-71
2022/04/05 10:31:03;;;;;;;;;;;5.70;99.90;;;;;;4912036;29;19946;-70
2022/04/05 10:33:43;;;;;;;;;;;5.80;99.90;;;;;;4927742;29;20386;-71
2022/04/05 10:36:09;;;;;;;;;;;5.70;99.90;;;;;;4916953;29;19927;-71
2022/04/05 10:38:36;;;;;;;;;;;5.80;99.90;;;;;;4928131;29;20026;-70
2022/04/05 10:41:14;;;;;;;;;;;5.90;99.90;;;;;;4928982;29;19922;-72
2022/04/05 10:43:41;;;;;;;;;;;5.90;99.90;;;;;;4932756;29;19926;-71
2022/04/05 10:46:14;;;;;;;;;;;6.10;99.90;;;;;;4926839;29;19981;-71
2022/04/05 10:48:56;;;;;;;;;;;6.20;99.90;;;;;;4929188;29;20362;-72
2022/04/05 10:51:31;;;;;;;;;;;6.30;99.90;;;;;;4925292;29;19930;-72
2022/04/05 10:54:19;;;;;;;;;;;6.50;99.90;;;;;;4911369;29;20378;-71
2022/04/05 10:57:10;;;;;;;;;;;6.50;99.90;;;;;;4921049;29;19927;-71
2022/04/05 10:59:50;;;;;;;;;;;6.60;99.90;;;;;;4927294;29;20469;-70
2022/04/05 11:02:29;;;;;;;;;;;6.70;99.90;;;;;;4925070;29;19973;-71
2022/04/05 11:04:59;;;;;;;;;;;6.80;99.90;;;;;;4933224;29;19977;-71
2022/04/05 11:07:50;;;;;;;;;;;6.80;99.90;;;;;;4946747;29;20008;-71
2022/04/05 11:10:25;;;;;;;;;;;6.80;99.90;;;;;;4943603;29;19929;-71
2022/04/05 11:13:06;;;;;;;;;;;6.80;99.90;;;;;;4931168;29;20337;-71
2022/04/05 11:15:42;;;;;;;;;;;6.80;99.90;;;;;;4924634;29;20000;-71
2022/04/05 11:18:09;;;;;;;;;;;6.80;99.90;;;;;;4932905;29;20385;-71
2022/04/05 11:20:42;;;;;;;;;;;7.00;99.90;;;;;;4934795;28;20425;-71
2022/04/05 11:23:09;;;;;;;;;;;7.10;99.90;;;;;;4939999;29;20025;-70
2022/04/05 11:25:42;;;;;;;;;;;7.00;99.90;;;;;;4943730;29;19929;-70
2022/04/05 11:28:11;;;;;;;;;;;7.00;99.90;;;;;;4943775;29;20367;-70
2022/04/05 11:30:52;;;;;;;;;;;7.00;99.90;;;;;;4916869;29;19933;-69
2022/04/05 11:33:37;;;;;;;;;;;7.10;99.90;;;;;;4932551;29;20608;-69
2022/04/05 11:36:09;;;;;;;;;;;7.10;99.90;;;;;;4935760;29;20384;-70
2022/04/05 11:39:02;;;;;;;;;;;7.20;99.90;;;;;;4929643;29;19923;-70
2022/04/05 11:41:33;;;;;;;;;;;7.20;99.90;;;;;;4934916;28;19927;-70
2022/04/05 11:44:06;;;;;;;;;;;7.30;99.90;;;;;;4932632;29;20382;-71
2022/04/05 11:46:38;;;;;;;;;;;7.30;99.90;;;;;;4924585;29;19937;-70
2022/04/05 11:49:13;;;;;;;;;;;7.30;99.90;;;;;;4940088;29;20009;-70
2022/04/05 11:51:47;;;;;;;;;;;7.30;99.90;;;;;;4936395;29;19934;-71
2022/04/05 11:54:27;;;;;;;;;;;7.30;99.90;;;;;;4932737;29;19985;-70
2022/04/05 11:57:02;;;;;;;;;;;7.40;99.90;;;;;;4937016;29;19923;-70
2022/04/05 11:59:34;;;;;;;;;;;7.40;99.90;;;;;;4939780;29;19966;-70
2022/04/05 12:02:01;;;;;;;;;;;7.60;99.90;;;;;;4935484;29;20709;-69
2022/04/05 12:04:33;;;;;;;;;;;7.60;99.90;;;;;;4939765;29;19970;-71
2022/04/05 12:07:04;;;;;;;;;;;7.80;99.90;;;;;;4939808;29;19922;-70
2022/04/05 12:09:36;;;;;;;;;;;8.00;99.90;;;;;;4939631;29;19958;-70
2022/04/05 12:12:04;;;;;;;;;;;8.10;99.90;;;;;;4945482;28;19923;-70
2022/04/05 12:14:32;;;;;;;;;;;8.20;99.90;;;;;;4944062;29;20568;-69
2022/04/05 12:17:05;;;;;;;;;;;8.40;99.90;;;;;;4946281;29;20001;-70
2022/04/05 12:19:35;;;;;;;;;;;8.50;99.90;;;;;;4945597;29;19922;-70
2022/04/05 12:22:06;;;;;;;;;;;8.60;99.90;;;;;;4942284;28;19927;-70
2022/04/05 12:24:42;;;;;;;;;;;8.60;99.90;;;;;;4932659;29;19954;-70
2022/04/05 12:27:15;;;;;;;;;;;8.70;99.90;;;;;;4935957;29;19927;-71
2022/04/05 12:29:42;;;;;;;;;;;8.70;99.90;;;;;;4940549;29;20016;-72
2022/04/05 12:32:10;;;;;;;;;;;8.70;99.90;;;;;;4933950;29;19958;-70
2022/04/05 12:34:42;;;;;;;;;;;8.70;99.90;;;;;;4934632;29;19929;-70
2022/04/05 12:37:14;;;;;;;;;;;8.70;99.90;;;;;;4919812;29;19930;-70
2022/04/05 12:39:42;;;;;;;;;;;8.70;99.90;;;;;;4917320;29;19929;-71
2022/04/05 12:42:14;;;;;;;;;;;8.70;99.90;;;;;;4929455;29;19929;-71
2022/04/05 12:44:48;;;;;;;;;;;8.80;99.90;;;;;;4927036;29;20012;-70
2022/04/05 12:47:23;;;;;;;;;;;9.00;99.90;;;;;;4933577;29;19922;-71
2022/04/05 12:49:51;;;;;;;;;;;9.00;99.90;;;;;;4921231;29;20378;-70
2022/04/05 12:52:25;;;;;;;;;;;9.10;99.90;;;;;;4934195;29;20351;-70
2022/04/05 12:55:04;;;;;;;;;;;9.20;99.90;;;;;;4923956;29;20550;-69
2022/04/05 12:57:32;;;;;;;;;;;9.10;99.90;;;;;;4943409;29;19929;-71
2022/04/05 13:00:19;;;;;;;;;;;9.10;99.90;;;;;;4940675;29;19981;-70
2022/04/05 13:02:47;;;;;;;;;;;9.30;99.90;;;;;;4924587;29;20314;-70
2022/04/05 13:08:10;;;;;;;;;;;9.50;99.90;;;;;;4940219;28;19923;-70
2022/04/05 13:10:45;;;;;;;;;;;9.50;99.90;;;;;;4939278;28;20427;-70
2022/04/05 13:13:23;;;;;;;;;;;9.40;99.90;;;;;;4941260;29;20357;-71
2022/04/05 13:16:01;;;;;;;;;;;9.40;99.90;;;;;;4927865;29;19927;-70
2022/04/05 13:18:37;;;;;;;;;;;9.40;99.90;;;;;;4946140;29;19930;-70
2022/04/05 13:21:08;;;;;;;;;;;9.30;99.90;;;;;;4924868;29;19930;-70
2022/04/05 13:23:41;;;;;;;;;;;9.40;99.90;;;;;;4939793;29;19923;-70
2022/04/05 13:26:20;;;;;;;;;;;9.40;99.90;;;;;;4934137;28;19927;-69
2022/04/05 13:29:09;;;;;;;;;;;9.30;99.90;;;;;;4934304;29;19926;-72
2022/04/05 13:31:40;;;;;;;;;;;9.40;99.90;;;;;;4900399;29;20370;-70
2022/04/05 13:34:14;;;;;;;;;;;9.40;99.90;;;;;;4948936;29;20009;-70
2022/04/05 13:36:46;;;;;;;;;;;9.50;99.90;;;;;;4927151;29;19970;-70
2022/04/05 13:39:13;;;;;;;;;;;9.40;99.90;;;;;;4939843;29;20017;-71
2022/04/05 13:41:46;;;;;;;;;;;9.40;99.90;;;;;;4935550;28;19923;-70
2022/04/05 13:44:19;;;;;;;;;;;9.40;99.90;;;;;;4926744;29;19954;-70
2022/04/05 13:46:53;;;;;;;;;;;9.40;99.90;;;;;;4942454;29;20400;-71
2022/04/05 13:49:25;;;;;;;;;;;9.40;99.90;;;;;;4935993;29;20013;-69
2022/04/05 13:51:54;;;;;;;;;;;9.40;99.90;;;;;;4917562;29;19927;-71
2022/04/05 13:54:21;;;;;;;;;;;9.40;99.90;;;;;;4935325;29;19932;-70
2022/04/05 13:56:53;;;;;;;;;;;9.30;99.90;;;;;;4938364;29;19931;-70
2022/04/05 13:59:26;;;;;;;;;;;9.30;99.90;;;;;;4933352;29;20005;-71
2022/04/05 14:01:58;;;;;;;;;;;9.40;99.90;;;;;;4917600;29;19930;-70
2022/04/05 14:04:34;;;;;;;;;;;9.40;99.90;;;;;;4934217;29;19933;-71
2022/04/05 14:07:01;;;;;;;;;;;9.40;99.90;;;;;;4937340;28;19970;-71
2022/04/05 14:09:29;;;;;;;;;;;9.40;99.90;;;;;;4915309;29;19941;-70
2022/04/05 14:11:57;;;;;;;;;;;9.40;99.90;;;;;;4930227;29;20349;-70
2022/04/05 14:14:31;;;;;;;;;;;9.30;99.90;;;;;;4936563;29;20337;-71
2022/04/05 14:16:58;;;;;;;;;;;9.30;99.90;;;;;;4929397;29;19979;-71
2022/04/05 14:19:25;;;;;;;;;;;9.30;99.90;;;;;;4921391;29;19958;-70
2022/04/05 14:21:58;;;;;;;;;;;9.30;99.90;;;;;;4925689;29;19922;-70
2022/04/05 14:24:31;;;;;;;;;;;9.40;99.90;;;;;;4930216;29;19927;-70
2022/04/05 14:26:58;;;;;;;;;;;9.30;99.90;;;;;;4916430;29;19923;-69
2022/04/05 14:29:35;;;;;;;;;;;9.30;99.90;;;;;;4925601;29;19922;-70
2022/04/05 14:32:04;;;;;;;;;;;9.40;99.90;;;;;;4937899;29;19929;-69
2022/04/05 14:34:31;;;;;;;;;;;9.40;99.90;;;;;;4924471;29;20017;-72
2022/04/05 14:37:00;;;;;;;;;;;9.40;99.90;;;;;;4918840;29;19923;-70
2022/04/05 14:39:31;;;;;;;;;;;9.40;99.90;;;;;;4926938;29;19923;-69
2022/04/05 14:41:59;;;;;;;;;;;9.50;99.90;;;;;;4918802;29;20404;-70
2022/04/05 14:44:31;;;;;;;;;;;9.50;99.90;;;;;;4937404;29;19930;-70
2022/04/05 14:47:00;;;;;;;;;;;9.50;99.90;;;;;;4938815;29;19938;-72
2022/04/05 14:49:33;;;;;;;;;;;9.60;99.90;;;;;;4926172;29;19982;-73
2022/04/05 14:52:00;;;;;;;;;;;9.50;99.90;;;;;;4924338;29;19947;-70
2022/04/05 14:54:32;;;;;;;;;;;9.60;99.90;;;;;;4915245;29;19927;-71
2022/04/05 14:57:04;;;;;;;;;;;9.60;99.90;;;;;;4919689;29;19940;-70
2022/04/05 14:59:38;;;;;;;;;;;9.60;99.90;;;;;;4926812;29;19923;-71